KBRG/BRG METAR and TAF weather

Enter ICAO airport designator
Station Type Date Time Source
KBRG METAR 2021/09/16 21:55 UTC NOAA

KBRG 162155Z AUTO 24007G15KT 10SM CLR 33/M06 A2998 RMK AO2 T03301056


Station Type Date Time Source
KBRG Decoded METAR 2021/09/16 21:55 UTC NOAA

Station name not available
Sep 16, 2021 - 05:55 PM EDT / 2021.09.16 2155 UTC
Wind: from the WSW (240 degrees) at 8 MPH (7 KT) gusting to 17 MPH (15 KT):0
Visibility: 10 mile(s):0
Sky conditions: clear
Temperature: 91.4 F (33.0 C)
Dew Point: 21.9 F (-5.6 C)
Relative Humidity: 8%
Pressure (altimeter): 29.98 in. Hg (1015 hPa)
ob: KBRG 162155Z AUTO 24007G15KT 10SM CLR 33/M06 A2998 RMK AO2 T03301056
cycle: 22

Station Type Date Time Source
KBRG TAF 2012/07/03 12:12 UTC NOAA

TAF SKBRG 031000Z 031212 VRB02KT 9999 FEW017 SCT080
TEMPO 0312/0317 11005KT VCTS - DZRAFEW015CB BKN070
TEMPO 0318/0323 TSRA FEW017CB BKN070
TEMPO 0400/0402 VCTS FEW020CB
TEMPO 0402/0406 -DZ SCT015CB
TEMPO 0408/0412 00000KT 5000 BCFG FEW005 TX23/0319Z TN10/0411Z

Example: see airport list